sensor_id;sensor_type;location;lat;lon;timestamp;pressure;altitude;pressure_sealevel;temperature;humidity
24302;BME280;12421;49.732;20.078;2022-09-20T00:00:49;96543.16;;;10.25;79.43
24302;BME280;12421;49.732;20.078;2022-09-20T00:10:58;96540.34;;;10.37;79.87
24302;BME280;12421;49.732;20.078;2022-09-20T00:21:04;96537.23;;;10.38;79.88
24302;BME280;12421;49.732;20.078;2022-09-20T00:31:07;96540.72;;;10.40;79.85
24302;BME280;12421;49.732;20.078;2022-09-20T00:41:09;96537.21;;;10.39;79.96
24302;BME280;12421;49.732;20.078;2022-09-20T00:51:14;96545.50;;;10.43;80.49
24302;BME280;12421;49.732;20.078;2022-09-20T01:01:18;96552.88;;;10.48;80.93
24302;BME280;12421;49.732;20.078;2022-09-20T01:11:20;96554.47;;;10.58;80.96
24302;BME280;12421;49.732;20.078;2022-09-20T01:21:23;96547.39;;;10.60;80.38
24302;BME280;12421;49.732;20.078;2022-09-20T01:31:29;96542.83;;;10.71;81.11
24302;BME280;12421;49.732;20.078;2022-09-20T01:41:54;96547.77;;;10.64;80.55
24302;BME280;12421;49.732;20.078;2022-09-20T02:03:00;96542.83;;;10.71;81.11
24302;BME280;12421;49.732;20.078;2022-09-20T02:13:26;96540.48;;;10.78;81.15
24302;BME280;12421;49.732;20.078;2022-09-20T03:37:07;96578.79;;;10.72;81.82
24302;BME280;12421;49.732;20.078;2022-09-20T03:58:33;96589.57;;;10.57;81.60
24302;BME280;12421;49.732;20.078;2022-09-20T05:31:54;96653.95;;;10.66;81.94
24302;BME280;12421;49.732;20.078;2022-09-20T05:42:18;96653.25;;;10.82;81.56
24302;BME280;12421;49.732;20.078;2022-09-20T06:03:23;96668.56;;;11.10;81.14
24302;BME280;12421;49.732;20.078;2022-09-20T06:24:00;96677.23;;;11.17;81.13
24302;BME280;12421;49.732;20.078;2022-09-20T06:34:09;96694.23;;;11.26;81.10
24302;BME280;12421;49.732;20.078;2022-09-20T06:44:11;96693.41;;;11.46;80.73
24302;BME280;12421;49.732;20.078;2022-09-20T06:54:16;96696.56;;;11.68;80.75
24302;BME280;12421;49.732;20.078;2022-09-20T07:04:19;96701.69;;;11.77;79.47
24302;BME280;12421;49.732;20.078;2022-09-20T07:14:22;96705.66;;;11.97;79.39
24302;BME280;12421;49.732;20.078;2022-09-20T07:24:25;96713.22;;;12.15;78.10
24302;BME280;12421;49.732;20.078;2022-09-20T07:34:29;96728.11;;;12.38;78.49
24302;BME280;12421;49.732;20.078;2022-09-20T07:44:32;96746.05;;;12.23;77.08
24302;BME280;12421;49.732;20.078;2022-09-20T07:54:34;96754.23;;;12.11;76.77
24302;BME280;12421;49.732;20.078;2022-09-20T08:04:36;96749.23;;;12.40;77.00
24302;BME280;12421;49.732;20.078;2022-09-20T08:14:38;96757.81;;;12.70;76.64
24302;BME280;12421;49.732;20.078;2022-09-20T08:24:41;96769.52;;;12.98;75.54
24302;BME280;12421;49.732;20.078;2022-09-20T08:34:44;96777.70;;;12.86;73.57
24302;BME280;12421;49.732;20.078;2022-09-20T08:44:50;96786.92;;;12.88;75.11
24302;BME280;12421;49.732;20.078;2022-09-20T08:54:55;96798.08;;;12.81;72.83
24302;BME280;12421;49.732;20.078;2022-09-20T09:05:01;96804.28;;;12.80;74.40
24302;BME280;12421;49.732;20.078;2022-09-20T09:15:20;96789.77;;;13.18;73.81
24302;BME280;12421;49.732;20.078;2022-09-20T09:25:28;96793.16;;;13.42;72.53
24302;BME280;12421;49.732;20.078;2022-09-20T09:35:36;96792.83;;;13.56;71.76
24302;BME280;12421;49.732;20.078;2022-09-20T09:45:38;96791.42;;;13.76;69.97
24302;BME280;12421;49.732;20.078;2022-09-20T09:55:59;96796.62;;;13.81;68.22
24302;BME280;12421;49.732;20.078;2022-09-20T10:06:20;96786.84;;;14.17;67.86
24302;BME280;12421;49.732;20.078;2022-09-20T10:27:16;96774.67;;;14.10;67.47
24302;BME280;12421;49.732;20.078;2022-09-20T11:08:36;96763.42;;;15.21;62.80
24302;BME280;12421;49.732;20.078;2022-09-20T11:18:47;96773.57;;;14.94;63.10
24302;BME280;12421;49.732;20.078;2022-09-20T11:29:00;96792.05;;;14.20;65.56
24302;BME280;12421;49.732;20.078;2022-09-20T11:39:17;96791.39;;;14.12;66.83
24302;BME280;12421;49.732;20.078;2022-09-20T12:00:08;96800.30;;;14.25;66.13
24302;BME280;12421;49.732;20.078;2022-09-20T12:10:24;96798.56;;;14.71;66.55
24302;BME280;12421;49.732;20.078;2022-09-20T12:30:39;96799.22;;;14.48;68.09
24302;BME280;12421;49.732;20.078;2022-09-20T12:41:04;96782.90;;;14.78;67.20
24302;BME280;12421;49.732;20.078;2022-09-20T12:51:30;96782.42;;;15.22;65.16
24302;BME280;12421;49.732;20.078;2022-09-20T13:01:51;96768.70;;;15.76;66.97
24302;BME280;12421;49.732;20.078;2022-09-20T13:11:55;96761.27;;;16.12;66.05
24302;BME280;12421;49.732;20.078;2022-09-20T13:22:05;96768.87;;;16.22;63.24
24302;BME280;12421;49.732;20.078;2022-09-20T13:32:29;96777.13;;;15.76;64.77
24302;BME280;12421;49.732;20.078;2022-09-20T13:42:33;96779.83;;;15.87;64.11
24302;BME280;12421;49.732;20.078;2022-09-20T13:52:43;96779.77;;;16.02;64.19
24302;BME280;12421;49.732;20.078;2022-09-20T14:02:48;96777.05;;;15.79;63.72
24302;BME280;12421;49.732;20.078;2022-09-20T14:12:50;96776.57;;;15.79;63.65
24302;BME280;12421;49.732;20.078;2022-09-20T14:22:54;96785.51;;;16.03;63.58
24302;BME280;12421;49.732;20.078;2022-09-20T14:32:57;96798.53;;;15.84;62.61
24302;BME280;12421;49.732;20.078;2022-09-20T14:43:04;96790.97;;;15.46;63.03
24302;BME280;12421;49.732;20.078;2022-09-20T14:53:22;96790.64;;;15.42;63.95
24302;BME280;12421;49.732;20.078;2022-09-20T15:03:44;96809.86;;;15.06;62.86
24302;BME280;12421;49.732;20.078;2022-09-20T15:13:42;96822.20;;;14.14;62.38
24302;BME280;12421;49.732;20.078;2022-09-20T15:23:45;96833.88;;;13.54;62.75
24302;BME280;12421;49.732;20.078;2022-09-20T15:33:48;96837.15;;;13.08;64.19
24302;BME280;12421;49.732;20.078;2022-09-20T15:43:50;96852.86;;;12.73;66.15
24302;BME280;12421;49.732;20.078;2022-09-20T15:53:56;96867.53;;;12.43;67.36
24302;BME280;12421;49.732;20.078;2022-09-20T16:14:13;96865.47;;;11.90;69.51
24302;BME280;12421;49.732;20.078;2022-09-20T16:24:18;96865.86;;;11.63;70.06
24302;BME280;12421;49.732;20.078;2022-09-20T16:34:24;96882.41;;;11.46;70.68
24302;BME280;12421;49.732;20.078;2022-09-20T16:44:37;96894.95;;;11.29;71.38
24302;BME280;12421;49.732;20.078;2022-09-20T16:54:42;96919.27;;;11.17;72.12
24302;BME280;12421;49.732;20.078;2022-09-20T17:04:45;96922.59;;;10.97;73.10
24302;BME280;12421;49.732;20.078;2022-09-20T17:14:47;96942.11;;;10.84;73.44
24302;BME280;12421;49.732;20.078;2022-09-20T17:24:49;96952.34;;;10.73;73.91
24302;BME280;12421;49.732;20.078;2022-09-20T17:34:52;96966.06;;;10.60;74.13
24302;BME280;12421;49.732;20.078;2022-09-20T17:44:54;96978.39;;;10.58;74.44
24302;BME280;12421;49.732;20.078;2022-09-20T17:54:56;96991.58;;;10.54;74.91
24302;BME280;12421;49.732;20.078;2022-09-20T18:04:58;96985.88;;;10.54;75.12
24302;BME280;12421;49.732;20.078;2022-09-20T18:15:00;96995.61;;;10.46;75.84
24302;BME280;12421;49.732;20.078;2022-09-20T18:25:07;97005.59;;;10.57;76.49
24302;BME280;12421;49.732;20.078;2022-09-20T18:35:09;96994.59;;;10.61;76.87
24302;BME280;12421;49.732;20.078;2022-09-20T18:45:12;97013.31;;;10.75;76.81
24302;BME280;12421;49.732;20.078;2022-09-20T18:55:14;97013.80;;;10.70;76.50
24302;BME280;12421;49.732;20.078;2022-09-20T19:05:26;97022.22;;;10.62;76.56
24302;BME280;12421;49.732;20.078;2022-09-20T19:25:48;97047.64;;;10.68;77.00
24302;BME280;12421;49.732;20.078;2022-09-20T19:35:51;97064.80;;;10.60;77.44
24302;BME280;12421;49.732;20.078;2022-09-20T19:56:27;97060.86;;;10.63;77.88
24302;BME280;12421;49.732;20.078;2022-09-20T20:27:25;97077.48;;;10.67;77.55
24302;BME280;12421;49.732;20.078;2022-09-20T20:37:28;97074.52;;;10.54;78.29
24302;BME280;12421;49.732;20.078;2022-09-20T20:47:32;97080.22;;;10.56;78.77
24302;BME280;12421;49.732;20.078;2022-09-20T20:57:34;97074.51;;;10.58;78.76
24302;BME280;12421;49.732;20.078;2022-09-20T21:07:36;97081.08;;;10.60;78.89
24302;BME280;12421;49.732;20.078;2022-09-20T21:17:39;97080.23;;;10.55;78.63
24302;BME280;12421;49.732;20.078;2022-09-20T21:27:41;97072.29;;;10.59;78.58
24302;BME280;12421;49.732;20.078;2022-09-20T21:37:43;97071.11;;;10.43;77.93
24302;BME280;12421;49.732;20.078;2022-09-20T21:47:47;97077.44;;;10.19;78.59
24302;BME280;12421;49.732;20.078;2022-09-20T21:57:50;97079.67;;;10.12;79.39
24302;BME280;12421;49.732;20.078;2022-09-20T22:07:54;97080.98;;;10.12;79.89
24302;BME280;12421;49.732;20.078;2022-09-20T22:17:59;97086.23;;;10.15;80.24
24302;BME280;12421;49.732;20.078;2022-09-20T22:28:01;97080.44;;;10.26;79.91
24302;BME280;12421;49.732;20.078;2022-09-20T22:38:03;97085.70;;;10.26;79.99
24302;BME280;12421;49.732;20.078;2022-09-20T22:48:05;97084.84;;;10.27;80.46
24302;BME280;12421;49.732;20.078;2022-09-20T22:58:07;97098.36;;;10.34;80.63
24302;BME280;12421;49.732;20.078;2022-09-20T23:08:09;97094.41;;;10.39;80.84
24302;BME280;12421;49.732;20.078;2022-09-20T23:18:11;97084.69;;;10.47;81.30
24302;BME280;12421;49.732;20.078;2022-09-20T23:28:14;97082.83;;;10.59;81.04
24302;BME280;12421;49.732;20.078;2022-09-20T23:38:16;97097.30;;;10.61;80.28
24302;BME280;12421;49.732;20.078;2022-09-20T23:48:18;97091.08;;;10.69;80.34
24302;BME280;12421;49.732;20.078;2022-09-20T23:58:21;97095.89;;;10.73;80.15
